Time;durP1;ratioP1;P1;durP2;ratioP2;P2;SDS_P1;SDS_P2;PMS_P1;PMS_P2;Temp;Humidity;BMP_temperature;BMP_pressure;BME280_temperature;BME280_humidity;BME280_pressure;Samples;Min_cycle;Max_cycle;Signal;HPM_P1;HPM_P2
2024/03/10 00:00:39;;;;;;;18.50;9.10;;;10.10;24.00;;;;;;5034076;28;20461;-77
2024/03/10 00:03:06;;;;;;;15.57;8.80;;;10.10;24.00;;;;;;5033422;28;20398;-77
2024/03/10 00:05:33;;;;;;;15.70;9.10;;;10.20;23.60;;;;;;5033501;28;20714;-75
2024/03/10 00:07:59;;;;;;;17.13;9.20;;;10.20;23.70;;;;;;5032268;28;20407;-76
2024/03/10 00:10:25;;;;;;;18.40;9.57;;;9.90;24.20;;;;;;5033574;28;20384;-77
2024/03/10 00:12:51;;;;;;;19.77;10.33;;;9.90;24.80;;;;;;5035201;28;20379;-76
2024/03/10 00:15:19;;;;;;;18.05;9.50;;;9.90;24.80;;;;;;5035799;28;20391;-76
2024/03/10 00:17:45;;;;;;;17.63;9.40;;;9.90;25.00;;;;;;5033412;28;20395;-77
2024/03/10 00:20:11;;;;;;;20.10;9.93;;;9.90;24.90;;;;;;5034651;28;20390;-77
2024/03/10 00:22:41;;;;;;;21.15;10.27;;;10.00;25.20;;;;;;5034759;28;20375;-76
2024/03/10 00:25:07;;;;;;;19.95;10.00;;;10.00;25.00;;;;;;5033904;28;20391;-77
2024/03/10 00:27:33;;;;;;;19.85;9.55;;;9.90;25.10;;;;;;5034473;28;20406;-77
2024/03/10 00:29:59;;;;;;;20.48;10.77;;;9.90;25.60;;;;;;5034633;28;20403;-75
2024/03/10 00:32:24;;;;;;;16.98;10.27;;;9.80;25.90;;;;;;5034334;28;20452;-77
2024/03/10 00:34:53;;;;;;;18.77;10.75;;;9.70;26.30;;;;;;5034436;28;20434;-75
2024/03/10 00:37:19;;;;;;;19.05;10.10;;;9.50;27.10;;;;;;5034328;28;20380;-77
2024/03/10 00:39:45;;;;;;;19.20;10.50;;;9.20;28.00;;;;;;5034455;28;20394;-76
2024/03/10 00:42:10;;;;;;;16.58;9.60;;;9.00;28.80;;;;;;5035849;28;20390;-77
2024/03/10 00:44:36;;;;;;;18.07;9.83;;;8.80;29.50;;;;;;5041551;28;20379;-77
2024/03/10 00:47:03;;;;;;;18.67;10.90;;;8.90;29.80;;;;;;5042192;28;20387;-77
2024/03/10 00:49:29;;;;;;;20.75;11.90;;;9.20;29.10;;;;;;5034245;28;20989;-78
2024/03/10 00:51:54;;;;;;;21.30;11.35;;;9.30;28.80;;;;;;5035064;28;20426;-77
2024/03/10 00:54:20;;;;;;;21.77;10.55;;;9.30;28.80;;;;;;5033924;28;20414;-77
2024/03/10 00:56:46;;;;;;;20.27;10.93;;;9.50;28.40;;;;;;5033779;28;20379;-76
2024/03/10 00:59:12;;;;;;;19.27;10.80;;;9.50;28.10;;;;;;5032874;28;20473;-77
2024/03/10 01:01:39;;;;;;;21.37;10.80;;;9.20;29.10;;;;;;5034086;28;20397;-76
2024/03/10 01:04:05;;;;;;;17.00;9.97;;;9.00;29.60;;;;;;5032771;28;20395;-75
2024/03/10 01:06:30;;;;;;;20.80;10.70;;;8.90;30.30;;;;;;5032002;28;20482;-77
2024/03/10 01:08:57;;;;;;;20.27;10.63;;;9.20;29.70;;;;;;5032192;28;20403;-76
2024/03/10 01:11:23;;;;;;;20.30;11.20;;;9.50;29.00;;;;;;5032095;28;20756;-76
2024/03/10 01:13:50;;;;;;;19.20;11.73;;;9.50;28.70;;;;;;5032840;28;20383;-76
2024/03/10 01:16:16;;;;;;;22.42;12.00;;;9.40;28.60;;;;;;5032138;28;20383;-76
2024/03/10 01:18:42;;;;;;;21.85;11.30;;;9.40;28.80;;;;;;5031746;28;20766;-70
2024/03/10 01:21:07;;;;;;;24.83;12.70;;;9.40;28.80;;;;;;5031621;28;20433;-71
2024/03/10 01:23:33;;;;;;;22.73;12.70;;;9.50;28.60;;;;;;5030754;28;20438;-78
2024/03/10 01:26:00;;;;;;;21.58;12.38;;;9.30;29.10;;;;;;5031350;28;20387;-77
2024/03/10 01:28:26;;;;;;;23.30;12.60;;;9.10;29.50;;;;;;5030566;28;20688;-75
2024/03/10 01:30:52;;;;;;;20.30;11.60;;;9.00;30.30;;;;;;5031576;28;20390;-76
2024/03/10 01:33:17;;;;;;;19.80;11.30;;;8.80;30.90;;;;;;5032345;28;20458;-78
2024/03/10 01:35:43;;;;;;;21.55;10.88;;;9.10;30.20;;;;;;5033559;28;20410;-77
2024/03/10 01:38:09;;;;;;;22.60;11.80;;;9.40;29.30;;;;;;5033829;28;20394;-78
2024/03/10 01:40:36;;;;;;;22.77;11.90;;;9.40;29.10;;;;;;5034080;28;20387;-76
2024/03/10 01:43:01;;;;;;;21.65;12.10;;;9.50;28.40;;;;;;5035802;28;20379;-75
2024/03/10 01:45:27;;;;;;;26.98;17.08;;;9.60;28.20;;;;;;5047051;28;20391;-76
2024/03/10 01:47:55;;;;;;;25.70;15.30;;;9.60;28.20;;;;;;5042168;28;20415;-76
2024/03/10 01:50:21;;;;;;;23.20;12.88;;;9.50;28.70;;;;;;5036160;28;20379;-77
2024/03/10 01:52:47;;;;;;;21.27;12.18;;;9.30;29.50;;;;;;5036990;28;20379;-75
2024/03/10 01:55:14;;;;;;;20.67;11.57;;;9.10;30.10;;;;;;5033538;28;20394;-77
2024/03/10 01:57:40;;;;;;;21.65;12.02;;;9.10;30.20;;;;;;5032126;28;20447;-76
2024/03/10 02:00:06;;;;;;;23.17;12.90;;;9.10;30.50;;;;;;5031422;28;20418;-76
2024/03/10 02:02:32;;;;;;;24.98;12.23;;;9.00;31.10;;;;;;5031654;28;20493;-76
2024/03/10 02:05:00;;;;;;;22.95;12.88;;;9.00;30.90;;;;;;5032287;28;20383;-77
2024/03/10 02:07:26;;;;;;;21.60;12.07;;;9.10;30.60;;;;;;5031031;28;20439;-77
2024/03/10 02:09:53;;;;;;;23.15;12.77;;;9.20;30.30;;;;;;5031051;28;20411;-76
2024/03/10 02:12:20;;;;;;;22.30;12.43;;;9.20;30.40;;;;;;5031553;28;20905;-77
2024/03/10 02:15:01;;;;;;;22.48;13.00;;;9.20;30.80;;;;;;5031278;28;20434;-77
2024/03/10 02:17:27;;;;;;;21.00;12.45;;;9.00;31.20;;;;;;5031051;28;20391;-76
2024/03/10 02:19:52;;;;;;;19.40;12.07;;;9.10;31.10;;;;;;5031092;28;20398;-77
2024/03/10 02:22:20;;;;;;;23.08;12.90;;;9.10;31.20;;;;;;5031623;28;20870;-77
2024/03/10 02:24:48;;;;;;;22.17;12.00;;;9.20;31.10;;;;;;5030299;28;20413;-77
2024/03/10 02:27:16;;;;;;;23.20;13.20;;;9.20;31.00;;;;;;5031486;28;20388;-77
2024/03/10 02:48:53;;;;;;;22.98;12.73;;;9.40;30.70;;;;;;5035965;28;20410;-77
2024/03/10 02:51:19;;;;;;;22.85;12.70;;;9.30;31.00;;;;;;5035228;28;20443;-76
2024/03/10 02:53:46;;;;;;;21.17;11.77;;;9.00;31.50;;;;;;5034918;28;20551;-75
2024/03/10 02:56:13;;;;;;;21.05;12.10;;;9.10;31.60;;;;;;5034890;28;20458;-76
2024/03/10 02:58:39;;;;;;;22.00;11.65;;;9.20;31.10;;;;;;5033347;28;20829;-76
2024/03/10 03:01:05;;;;;;;20.08;11.25;;;9.30;30.70;;;;;;5034695;28;20394;-77
2024/03/10 03:03:31;;;;;;;20.35;12.10;;;9.40;30.50;;;;;;5034791;28;20830;-78
2024/03/10 03:05:57;;;;;;;21.05;11.68;;;9.40;30.90;;;;;;5035218;28;20892;-77
2024/03/10 03:08:24;;;;;;;22.00;12.70;;;9.40;30.70;;;;;;5034324;28;20399;-75
2024/03/10 03:10:50;;;;;;;20.13;11.85;;;9.30;31.20;;;;;;5034538;28;20379;-77
2024/03/10 03:13:17;;;;;;;21.95;12.60;;;9.30;31.00;;;;;;5037923;28;20395;-77
2024/03/10 03:15:42;;;;;;;24.00;12.02;;;9.30;31.10;;;;;;5038539;28;20882;-76
2024/03/10 03:18:08;;;;;;;21.05;13.02;;;9.30;31.90;;;;;;5038048;28;20407;-76
2024/03/10 03:20:34;;;;;;;20.43;12.13;;;9.30;31.20;;;;;;5034781;28;20825;-77
2024/03/10 03:23:04;;;;;;;22.23;13.00;;;9.30;31.30;;;;;;5034830;28;20394;-78
2024/03/10 03:25:30;;;;;;;21.05;13.45;;;9.30;31.50;;;;;;5034948;28;20414;-77
2024/03/10 03:27:55;;;;;;;25.75;14.10;;;9.20;31.60;;;;;;5034286;28;20391;-77
2024/03/10 03:30:22;;;;;;;21.17;12.93;;;9.20;31.90;;;;;;5034722;28;20461;-78
2024/03/10 03:32:48;;;;;;;24.25;13.18;;;9.10;32.00;;;;;;5034492;28;20407;-77
2024/03/10 03:35:16;;;;;;;26.27;13.80;;;9.10;32.10;;;;;;5034908;28;20395;-77
2024/03/10 03:37:42;;;;;;;22.70;13.43;;;9.00;32.30;;;;;;5034329;28;20383;-77
2024/03/10 03:40:08;;;;;;;24.05;13.50;;;9.00;32.50;;;;;;5033399;28;20383;-76
2024/03/10 03:42:36;;;;;;;24.23;13.23;;;8.90;32.70;;;;;;5034419;28;20394;-76
2024/03/10 03:45:04;;;;;;;26.13;14.07;;;8.90;32.80;;;;;;5033752;28;20465;-77
2024/03/10 03:47:30;;;;;;;25.88;13.30;;;8.80;33.40;;;;;;5034454;28;20444;-76
2024/03/10 03:49:55;;;;;;;23.30;13.43;;;8.80;33.30;;;;;;5032872;28;20406;-76
2024/03/10 03:52:21;;;;;;;23.33;13.82;;;8.80;33.40;;;;;;5034381;28;20395;-76
2024/03/10 03:54:48;;;;;;;27.00;13.93;;;8.70;33.40;;;;;;5034616;28;20387;-76
2024/03/10 03:57:14;;;;;;;23.27;12.98;;;8.60;33.90;;;;;;5042712;28;20383;-77
2024/03/10 03:59:40;;;;;;;21.70;13.48;;;8.60;33.80;;;;;;5043202;28;20957;-76
2024/03/10 04:02:07;;;;;;;23.85;13.45;;;8.80;33.20;;;;;;5039038;28;20391;-78
2024/03/10 04:04:33;;;;;;;23.55;12.88;;;8.90;32.80;;;;;;5033814;28;20490;-76
2024/03/10 04:06:58;;;;;;;22.50;12.40;;;8.90;32.60;;;;;;5033813;28;20423;-77
2024/03/10 04:09:24;;;;;;;25.10;13.00;;;8.90;33.10;;;;;;5033205;28;20447;-77
2024/03/10 04:11:50;;;;;;;23.33;12.68;;;9.00;32.30;;;;;;5033827;28;20375;-77
2024/03/10 04:14:16;;;;;;;24.03;13.10;;;8.90;32.30;;;;;;5033851;28;20402;-76
2024/03/10 04:16:47;;;;;;;25.10;12.93;;;8.90;32.40;;;;;;5033764;28;20453;-76
2024/03/10 04:19:13;;;;;;;22.70;12.73;;;8.90;32.50;;;;;;5033745;28;20403;-77
2024/03/10 04:21:38;;;;;;;28.10;14.10;;;8.90;32.70;;;;;;5033447;28;20517;-76
2024/03/10 04:24:07;;;;;;;24.95;13.75;;;8.90;33.00;;;;;;5033580;28;20745;-76
2024/03/10 04:26:33;;;;;;;25.85;13.93;;;8.80;33.30;;;;;;5033499;28;20397;-78
2024/03/10 04:28:59;;;;;;;24.67;14.20;;;8.80;33.60;;;;;;5032676;28;20985;-77
2024/03/10 04:31:24;;;;;;;24.15;13.68;;;8.80;33.60;;;;;;5033174;28;20447;-76
2024/03/10 04:33:51;;;;;;;29.33;14.17;;;8.70;33.80;;;;;;5033078;28;20378;-76
2024/03/10 04:36:17;;;;;;;23.33;14.15;;;8.70;34.00;;;;;;5033059;28;20827;-76
2024/03/10 04:38:43;;;;;;;26.53;14.00;;;8.70;33.90;;;;;;5033065;28;20387;-76
2024/03/10 04:41:09;;;;;;;26.15;14.88;;;8.80;33.70;;;;;;5033365;28;20387;-76
2024/03/10 04:43:35;;;;;;;25.93;14.50;;;8.70;33.80;;;;;;5033273;28;20746;-78
2024/03/10 04:46:03;;;;;;;27.77;15.15;;;8.60;34.10;;;;;;5033573;28;20399;-76
2024/03/10 04:48:30;;;;;;;25.77;14.90;;;8.60;34.30;;;;;;5033130;28;20403;-77
2024/03/10 04:50:56;;;;;;;29.38;15.20;;;8.50;34.60;;;;;;5033238;28;20405;-75
2024/03/10 04:53:21;;;;;;;28.27;15.40;;;8.50;34.70;;;;;;5033952;28;20387;-75
2024/03/10 04:55:47;;;;;;;27.30;14.93;;;8.40;34.90;;;;;;5033501;28;20398;-77
2024/03/10 04:58:15;;;;;;;28.83;14.68;;;8.50;35.10;;;;;;5032999;28;20401;-76
2024/03/10 05:00:41;;;;;;;28.43;15.90;;;8.40;35.20;;;;;;5032971;28;20886;-75
2024/03/10 05:03:09;;;;;;;24.73;14.25;;;8.50;35.30;;;;;;5037108;28;20465;-77
2024/03/10 05:05:34;;;;;;;28.55;15.70;;;8.50;35.20;;;;;;5041962;28;20391;-77
2024/03/10 05:08:00;;;;;;;25.70;14.93;;;8.40;35.40;;;;;;5040749;28;20387;-78
2024/03/10 05:10:26;;;;;;;30.05;15.30;;;8.40;35.30;;;;;;5033609;28;20389;-76
2024/03/10 05:12:51;;;;;;;27.10;15.37;;;8.50;35.20;;;;;;5031613;28;20446;-76
2024/03/10 05:15:17;;;;;;;29.93;16.27;;;8.50;35.10;;;;;;5033598;28;20900;-77
2024/03/10 05:17:43;;;;;;;27.70;15.90;;;8.50;35.20;;;;;;5032496;28;20398;-75
2024/03/10 05:20:12;;;;;;;26.33;15.23;;;8.40;35.30;;;;;;5033052;28;20379;-77
2024/03/10 05:22:39;;;;;;;27.38;15.75;;;8.40;35.50;;;;;;5032430;28;20391;-77
2024/03/10 05:25:08;;;;;;;29.02;15.60;;;8.50;35.50;;;;;;5032954;28;20455;-75
2024/03/10 05:27:34;;;;;;;27.15;15.18;;;8.60;35.20;;;;;;5032538;28;20383;-75
2024/03/10 05:29:59;;;;;;;28.10;16.05;;;8.60;35.00;;;;;;5032309;28;20485;-76
2024/03/10 05:32:25;;;;;;;28.87;15.90;;;8.60;35.20;;;;;;5032787;28;20383;-77
2024/03/10 05:34:56;;;;;;;27.42;15.68;;;8.60;35.10;;;;;;5031986;28;20868;-76
2024/03/10 05:37:22;;;;;;;30.57;15.57;;;8.50;35.30;;;;;;5031462;28;20383;-78
2024/03/10 05:39:47;;;;;;;27.55;15.48;;;8.50;35.30;;;;;;5031520;28;20383;-77
2024/03/10 05:42:14;;;;;;;29.75;15.65;;;8.50;35.70;;;;;;5031854;28;20894;-77
2024/03/10 05:44:40;;;;;;;24.53;13.83;;;8.40;35.90;;;;;;5033047;28;20989;-76
2024/03/10 05:47:06;;;;;;;27.85;15.30;;;8.40;35.80;;;;;;5031693;28;20390;-76
2024/03/10 05:49:32;;;;;;;29.80;15.67;;;8.40;36.00;;;;;;5031617;28;20433;-75
2024/03/10 05:51:57;;;;;;;28.43;15.43;;;8.40;36.10;;;;;;5031316;28;20390;-75
2024/03/10 05:54:23;;;;;;;29.00;15.50;;;8.40;36.20;;;;;;5031541;28;20383;-77
2024/03/10 05:56:49;;;;;;;26.80;14.87;;;8.30;36.10;;;;;;5031048;28;20881;-76
2024/03/10 05:59:15;;;;;;;25.65;15.52;;;8.30;36.40;;;;;;5030870;28;20758;-76
2024/03/10 06:01:40;;;;;;;26.25;14.90;;;8.30;36.40;;;;;;5030992;28;20762;-76
2024/03/10 06:04:07;;;;;;;28.10;15.77;;;8.20;36.60;;;;;;5031206;28;20390;-76
2024/03/10 06:06:33;;;;;;;28.13;15.40;;;8.30;36.20;;;;;;5031532;28;20869;-76
2024/03/10 06:08:59;;;;;;;28.33;15.45;;;8.40;35.90;;;;;;5030138;28;20441;-76
2024/03/10 06:11:25;;;;;;;26.35;14.57;;;8.40;35.80;;;;;;5030585;28;20398;-76
2024/03/10 06:13:51;;;;;;;25.42;15.50;;;8.50;35.50;;;;;;5030847;28;20391;-76
2024/03/10 06:16:16;;;;;;;25.08;15.50;;;8.50;35.10;;;;;;5031274;28;20379;-76
2024/03/10 06:26:55;;;;;;;29.58;15.82;;;8.40;35.20;;;;;;5030829;28;21021;-76
2024/03/10 06:29:23;;;;;;;30.67;16.03;;;8.40;35.30;;;;;;5032031;28;20494;-76
2024/03/10 06:31:49;;;;;;;30.85;16.30;;;8.40;35.40;;;;;;5030523;28;20383;-77
2024/03/10 06:34:14;;;;;;;27.38;15.82;;;8.40;35.40;;;;;;5030932;28;20380;-77
2024/03/10 06:36:41;;;;;;;27.83;15.50;;;8.40;35.30;;;;;;5030924;28;20386;-77
2024/03/10 06:39:08;;;;;;;26.88;15.05;;;8.40;35.40;;;;;;5030749;28;20466;-77
2024/03/10 06:41:34;;;;;;;29.55;17.00;;;8.40;35.50;;;;;;5030383;28;20470;-77
2024/03/10 06:44:00;;;;;;;29.13;16.13;;;8.40;35.20;;;;;;5030715;28;20473;-76
2024/03/10 06:46:26;;;;;;;26.92;15.35;;;8.50;35.20;;;;;;5031070;28;20403;-77
2024/03/10 06:48:52;;;;;;;26.77;14.98;;;8.50;34.90;;;;;;5032408;28;20432;-77
2024/03/10 06:51:19;;;;;;;29.08;15.45;;;8.50;34.70;;;;;;5030270;28;20379;-77
2024/03/10 06:53:45;;;;;;;28.02;15.40;;;8.50;34.50;;;;;;5030378;28;20387;-76
2024/03/10 06:56:11;;;;;;;29.77;15.83;;;8.50;34.50;;;;;;5030272;28;20823;-77
2024/03/10 06:58:36;;;;;;;25.65;14.80;;;8.60;34.60;;;;;;5028940;28;20406;-78
2024/03/10 07:01:06;;;;;;;27.63;14.70;;;8.60;34.50;;;;;;5030802;28;20383;-77
2024/03/10 07:03:32;;;;;;;29.50;17.33;;;8.40;35.10;;;;;;5030705;28;20394;-77
2024/03/10 07:06:00;;;;;;;30.30;17.33;;;8.50;34.70;;;;;;5030302;28;20460;-76
2024/03/10 07:08:26;;;;;;;29.00;15.70;;;8.60;34.80;;;;;;5029818;28;20402;-77
2024/03/10 07:10:52;;;;;;;28.67;16.33;;;8.70;34.50;;;;;;5029912;28;20387;-77
2024/03/10 07:13:20;;;;;;;32.47;16.45;;;8.80;34.20;;;;;;5030824;28;20387;-76
2024/03/10 07:15:46;;;;;;;28.00;14.45;;;8.90;33.90;;;;;;5030699;28;20422;-76
2024/03/10 07:18:12;;;;;;;29.10;15.10;;;8.90;33.90;;;;;;5030207;28;20423;-75
2024/03/10 07:20:39;;;;;;;25.20;14.73;;;9.00;33.60;;;;;;5041280;28;20890;-78
2024/03/10 07:23:05;;;;;;;27.55;14.10;;;9.00;33.40;;;;;;5043776;28;20474;-76
2024/03/10 07:25:30;;;;;;;22.77;13.05;;;9.00;33.40;;;;;;5042178;28;20386;-77
2024/03/10 07:27:56;;;;;;;22.13;12.35;;;9.10;33.30;;;;;;5033649;28;20414;-76
2024/03/10 07:30:22;;;;;;;21.80;12.40;;;9.10;32.40;;;;;;5033830;28;20479;-75
2024/03/10 07:32:47;;;;;;;22.85;13.45;;;9.20;32.10;;;;;;5033372;28;20422;-76
2024/03/10 07:35:13;;;;;;;23.70;13.18;;;9.20;32.10;;;;;;5033859;28;20470;-76
2024/03/10 07:37:44;;;;;;;24.25;14.20;;;9.30;32.30;;;;;;5031855;28;20744;-75
2024/03/10 07:40:19;;;;;;;25.35;13.20;;;9.30;32.20;;;;;;5033399;28;20422;-76
2024/03/10 07:42:48;;;;;;;24.10;13.35;;;9.50;31.50;;;;;;5033908;28;20390;-77
2024/03/10 07:45:17;;;;;;;22.02;13.25;;;9.50;31.10;;;;;;5033076;28;20858;-77
2024/03/10 07:47:47;;;;;;;26.03;13.60;;;9.50;31.20;;;;;;5032650;28;20905;-76
2024/03/10 07:50:17;;;;;;;22.38;13.00;;;9.60;31.00;;;;;;5032898;28;20449;-76
2024/03/10 07:52:44;;;;;;;23.30;13.40;;;9.50;31.40;;;;;;5033318;28;20462;-76
2024/03/10 07:55:10;;;;;;;22.80;13.88;;;9.50;31.40;;;;;;5032212;28;20384;-78
2024/03/10 07:57:39;;;;;;;21.30;12.35;;;9.60;31.40;;;;;;5032809;28;20441;-76
2024/03/10 08:00:06;;;;;;;24.45;12.88;;;9.60;31.30;;;;;;5032984;28;20387;-76
2024/03/10 08:02:32;;;;;;;23.30;13.20;;;9.60;31.10;;;;;;5033223;28;20960;-77
2024/03/10 08:04:58;;;;;;;21.55;13.25;;;9.70;30.90;;;;;;5033388;28;20415;-76
2024/03/10 08:07:24;;;;;;;23.70;13.75;;;9.80;30.70;;;;;;5032018;28;20431;-77
2024/03/10 08:09:49;;;;;;;23.55;12.85;;;9.90;31.10;;;;;;5033162;28;20429;-75
2024/03/10 08:12:15;;;;;;;24.03;12.67;;;9.80;30.60;;;;;;5033682;28;20501;-76
2024/03/10 08:14:41;;;;;;;20.67;12.70;;;9.80;30.60;;;;;;5033218;28;20466;-75
2024/03/10 08:17:06;;;;;;;20.77;13.10;;;9.80;30.70;;;;;;5033586;28;20432;-76
2024/03/10 08:19:32;;;;;;;22.40;13.80;;;9.70;31.10;;;;;;5033924;28;20486;-76
2024/03/10 08:21:58;;;;;;;23.03;13.33;;;9.70;31.30;;;;;;5035985;28;20386;-78
2024/03/10 08:24:25;;;;;;;23.97;13.77;;;9.70;31.40;;;;;;5039111;28;20382;-77
2024/03/10 08:26:51;;;;;;;27.70;14.75;;;9.70;31.30;;;;;;5035174;28;20403;-77
2024/03/10 08:29:17;;;;;;;24.10;14.30;;;9.90;31.10;;;;;;5032321;28;20397;-79
2024/03/10 08:31:43;;;;;;;24.67;14.82;;;10.00;31.50;;;;;;5033741;28;20925;-77
2024/03/10 08:34:09;;;;;;;25.17;14.25;;;10.10;30.80;;;;;;5037790;28;20390;-79
2024/03/10 08:36:39;;;;;;;26.60;14.10;;;10.40;30.10;;;;;;5037384;28;20382;-77
2024/03/10 08:39:08;;;;;;;24.30;14.00;;;10.60;29.70;;;;;;5036875;28;20461;-78
2024/03/10 08:41:34;;;;;;;25.13;14.43;;;10.90;28.40;;;;;;5035886;28;20465;-78
2024/03/10 08:44:01;;;;;;;24.00;13.80;;;11.10;27.50;;;;;;5035946;28;20413;-78
2024/03/10 08:46:27;;;;;;;23.20;14.13;;;11.30;27.00;;;;;;5034302;28;20470;-77
2024/03/10 08:48:52;;;;;;;24.08;13.70;;;11.60;26.10;;;;;;5032234;28;20439;-79
2024/03/10 08:51:18;;;;;;;23.40;13.03;;;11.50;26.00;;;;;;5033724;28;20773;-77
2024/03/10 08:53:44;;;;;;;22.60;13.50;;;11.60;26.00;;;;;;5032973;28;20383;-78
2024/03/10 08:56:10;;;;;;;23.33;13.37;;;12.00;24.80;;;;;;5033740;28;20470;-77
2024/03/10 08:58:35;;;;;;;23.67;14.00;;;12.00;24.40;;;;;;5032818;28;20391;-77
2024/03/10 09:01:04;;;;;;;22.10;12.97;;;12.00;24.80;;;;;;5032166;28;20932;-77
2024/03/10 09:03:30;;;;;;;21.90;13.03;;;11.80;25.10;;;;;;5033845;28;20894;-77
2024/03/10 09:05:56;;;;;;;23.00;13.90;;;11.80;25.40;;;;;;5032979;28;20398;-77
2024/03/10 09:08:21;;;;;;;22.67;13.52;;;11.80;25.10;;;;;;5032498;28;20403;-77
2024/03/10 09:10:47;;;;;;;25.45;14.65;;;11.90;25.30;;;;;;5032366;28;20375;-76
2024/03/10 09:13:13;;;;;;;23.93;14.40;;;12.00;25.00;;;;;;5032867;28;20383;-77
2024/03/10 09:15:39;;;;;;;24.10;13.63;;;12.10;25.00;;;;;;5033397;28;20383;-77
2024/03/10 09:18:05;;;;;;;23.35;13.82;;;12.10;24.30;;;;;;5036887;28;20828;-78
2024/03/10 09:20:31;;;;;;;24.88;14.00;;;11.90;24.60;;;;;;5033767;28;20379;-77
2024/03/10 09:22:57;;;;;;;23.75;13.55;;;11.90;25.50;;;;;;5030397;28;20741;-77
2024/03/10 09:25:23;;;;;;;23.83;13.30;;;11.90;25.20;;;;;;5033762;28;20394;-76
2024/03/10 09:27:53;;;;;;;23.20;12.80;;;11.90;25.40;;;;;;5034162;28;20427;-78
2024/03/10 09:30:26;;;;;;;21.40;12.90;;;11.90;25.40;;;;;;5035155;28;20415;-77
2024/03/10 09:32:55;;;;;;;21.60;12.88;;;11.90;25.40;;;;;;5032224;28;20413;-77
2024/03/10 09:35:23;;;;;;;21.08;12.80;;;12.10;25.40;;;;;;5032120;28;20466;-76
2024/03/10 09:37:50;;;;;;;21.98;12.40;;;12.40;24.50;;;;;;5031181;28;20449;-77
2024/03/10 09:40:16;;;;;;;22.70;12.40;;;12.40;23.50;;;;;;5031149;28;20394;-77
2024/03/10 09:42:42;;;;;;;20.13;12.73;;;12.50;24.30;;;;;;5031363;28;20897;-78
2024/03/10 09:45:15;;;;;;;22.05;13.18;;;12.50;23.80;;;;;;5031883;28;20383;-78
2024/03/10 09:47:44;;;;;;;25.52;12.77;;;12.50;23.80;;;;;;5032407;28;20407;-79
2024/03/10 09:50:10;;;;;;;21.63;12.43;;;12.30;24.10;;;;;;5032502;28;20520;-77
2024/03/10 09:52:37;;;;;;;23.23;13.40;;;12.30;24.30;;;;;;5032504;28;20393;-78
2024/03/10 09:55:06;;;;;;;22.58;12.95;;;12.40;24.20;;;;;;5033202;28;20390;-75
2024/03/10 09:57:34;;;;;;;24.30;13.00;;;12.50;24.00;;;;;;5029908;28;20390;-77
2024/03/10 10:00:12;;;;;;;22.45;13.25;;;12.60;24.40;;;;;;5030542;28;20379;-77
2024/03/10 10:02:42;;;;;;;22.08;13.38;;;12.90;23.20;;;;;;5030656;28;20390;-73
2024/03/10 10:05:19;;;;;;;22.40;12.60;;;13.10;22.90;;;;;;5030233;28;20387;-72
2024/03/10 10:07:46;;;;;;;22.20;12.00;;;13.30;22.30;;;;;;5029713;28;20391;-74
2024/03/10 10:10:11;;;;;;;20.73;12.15;;;13.50;22.10;;;;;;5030959;28;20894;-73
2024/03/10 10:12:40;;;;;;;22.08;13.00;;;13.60;21.60;;;;;;5028904;28;20460;-74
2024/03/10 10:15:07;;;;;;;21.88;12.32;;;13.60;21.30;;;;;;5029131;28;20478;-74
2024/03/10 10:17:33;;;;;;;20.63;12.23;;;13.70;21.60;;;;;;5029477;28;20391;-74
2024/03/10 10:19:59;;;;;;;26.43;12.40;;;13.80;21.00;;;;;;5031340;28;20486;-72
2024/03/10 10:22:25;;;;;;;20.80;12.60;;;14.00;20.90;;;;;;5030719;28;20415;-73
2024/03/10 10:25:02;;;;;;;21.40;12.50;;;14.00;20.40;;;;;;5031780;28;20386;-74
2024/03/10 10:27:28;;;;;;;20.90;12.23;;;14.20;20.30;;;;;;5041458;28;20394;-73
2024/03/10 10:29:54;;;;;;;21.57;12.73;;;14.40;20.00;;;;;;5030548;28;20592;-73
2024/03/10 10:32:24;;;;;;;21.27;12.38;;;14.50;19.70;;;;;;5045033;28;20399;-73
2024/03/10 10:34:56;;;;;;;20.83;12.10;;;14.60;19.60;;;;;;5051117;28;20373;-74
2024/03/10 10:37:22;;;;;;;22.73;11.85;;;14.50;19.60;;;;;;5038970;28;20387;-73
2024/03/10 10:39:47;;;;;;;19.00;11.75;;;14.50;19.50;;;;;;5032152;28;20478;-74
2024/03/10 10:42:13;;;;;;;19.80;11.67;;;14.60;19.90;;;;;;5031941;28;20383;-72
2024/03/10 10:44:40;;;;;;;19.93;12.60;;;14.70;19.30;;;;;;5031103;28;20440;-73
2024/03/10 10:47:08;;;;;;;18.90;12.50;;;14.80;19.80;;;;;;5030710;28;20414;-74
2024/03/10 10:49:34;;;;;;;21.05;12.00;;;14.80;18.90;;;;;;5030247;28;20769;-73
2024/03/10 10:52:02;;;;;;;21.23;13.48;;;14.60;19.60;;;;;;5029784;28;20383;-73
2024/03/10 10:54:28;;;;;;;20.00;12.75;;;14.70;20.10;;;;;;5030921;28;20379;-72
2024/03/10 10:56:55;;;;;;;21.70;13.05;;;14.80;19.80;;;;;;5035278;28;20393;-73
2024/03/10 10:59:25;;;;;;;20.25;12.20;;;14.80;19.40;;;;;;5034968;28;20587;-72
2024/03/10 11:01:55;;;;;;;24.05;12.63;;;14.80;19.30;;;;;;5035274;28;20437;-73
2024/03/10 11:04:25;;;;;;;20.60;12.80;;;14.70;19.70;;;;;;5034143;28;20461;-73
2024/03/10 11:06:54;;;;;;;21.10;13.15;;;14.80;19.40;;;;;;5034289;28;20470;-73
2024/03/10 11:09:30;;;;;;;22.33;13.70;;;14.70;19.20;;;;;;5030945;28;20413;-74
2024/03/10 11:11:56;;;;;;;23.10;14.00;;;14.70;19.30;;;;;;5031584;28;20383;-72
2024/03/10 11:14:25;;;;;;;25.40;14.82;;;14.80;19.50;;;;;;5031457;28;20767;-75
2024/03/10 11:17:12;;;;;;;23.17;14.10;;;14.90;19.50;;;;;;5031291;28;20537;-73
2024/03/10 11:19:42;;;;;;;23.20;13.48;;;14.90;19.10;;;;;;5031117;28;20405;-74
2024/03/10 11:22:10;;;;;;;25.73;15.25;;;14.90;19.10;;;;;;5029343;28;21177;-75
2024/03/10 11:24:35;;;;;;;26.42;14.85;;;15.00;19.00;;;;;;5031587;28;20391;-73
2024/03/10 11:27:18;;;;;;;27.15;16.60;;;15.20;19.00;;;;;;5029171;28;20410;-75
2024/03/10 11:29:44;;;;;;;31.33;17.80;;;15.30;18.30;;;;;;5032138;28;20861;-74
2024/03/10 11:32:31;;;;;;;31.80;18.60;;;15.20;18.70;;;;;;5033554;28;20425;-73
2024/03/10 11:34:59;;;;;;;30.88;18.30;;;15.30;18.60;;;;;;5047839;28;20378;-75
2024/03/10 11:37:25;;;;;;;34.38;19.92;;;15.60;18.20;;;;;;5049908;28;20420;-75
2024/03/10 11:39:51;;;;;;;37.15;21.10;;;15.80;18.00;;;;;;5049112;28;20391;-76
2024/03/10 11:42:18;;;;;;;37.23;21.60;;;15.90;17.70;;;;;;5036599;28;20445;-72
2024/03/10 11:44:44;;;;;;;39.05;22.48;;;16.10;17.60;;;;;;5032222;28;20857;-74
2024/03/10 11:47:11;;;;;;;38.88;22.80;;;16.30;17.00;;;;;;5036898;28;20765;-74
2024/03/10 11:49:37;;;;;;;39.58;22.35;;;16.20;17.10;;;;;;5032806;28;20403;-74
2024/03/10 11:52:06;;;;;;;38.13;22.23;;;16.20;16.80;;;;;;5020051;28;20488;-72
2024/03/10 11:54:32;;;;;;;40.03;22.35;;;16.20;17.40;;;;;;5013588;28;20420;-72
2024/03/10 11:56:59;;;;;;;35.07;20.33;;;16.10;17.10;;;;;;5013420;28;20416;-73
2024/03/10 11:59:25;;;;;;;36.70;22.20;;;16.10;17.20;;;;;;5013285;28;20943;-73
2024/03/10 12:01:51;;;;;;;34.50;20.75;;;16.20;17.30;;;;;;5013028;28;20397;-72
2024/03/10 12:04:17;;;;;;;32.83;20.83;;;16.40;17.00;;;;;;5027403;28;20409;-74
2024/03/10 12:06:43;;;;;;;35.42;20.20;;;16.30;17.90;;;;;;5033029;28;20384;-74
2024/03/10 12:09:20;;;;;;;29.95;18.70;;;16.40;17.90;;;;;;5032538;28;20403;-73
2024/03/10 12:11:46;;;;;;;28.65;18.38;;;16.80;17.40;;;;;;5032738;28;20382;-72
2024/03/10 12:14:11;;;;;;;29.33;18.30;;;17.20;16.10;;;;;;5039540;28;20821;-72
2024/03/10 12:16:38;;;;;;;30.30;17.60;;;17.10;15.90;;;;;;5052352;28;20388;-73
2024/03/10 12:19:04;;;;;;;27.23;17.88;;;17.10;16.40;;;;;;5038796;28;20431;-73
2024/03/10 12:21:30;;;;;;;29.70;18.67;;;17.10;16.50;;;;;;5041697;28;20405;-73
2024/03/10 12:23:58;;;;;;;28.53;17.70;;;17.40;16.30;;;;;;5032929;28;20398;-73
2024/03/10 12:26:24;;;;;;;28.58;18.00;;;17.40;16.10;;;;;;5032553;28;20791;-73
2024/03/10 12:28:49;;;;;;;26.60;17.70;;;17.30;16.40;;;;;;5031776;28;20513;-75
2024/03/10 12:31:16;;;;;;;28.50;17.53;;;17.30;15.90;;;;;;5032453;28;20407;-73
2024/03/10 12:33:44;;;;;;;28.98;18.17;;;17.20;15.90;;;;;;5032877;28;20387;-74
2024/03/10 12:36:09;;;;;;;27.38;18.05;;;16.90;16.50;;;;;;5032420;28;20412;-74
2024/03/10 12:38:39;;;;;;;28.90;18.45;;;16.90;17.10;;;;;;5032371;28;20793;-74
2024/03/10 12:41:06;;;;;;;29.55;18.38;;;17.20;16.70;;;;;;5032530;28;20402;-74
2024/03/10 12:43:32;;;;;;;30.75;17.38;;;17.50;16.70;;;;;;5033090;28;20912;-73
2024/03/10 12:45:58;;;;;;;33.22;19.90;;;17.30;16.20;;;;;;5052808;28;20803;-74
2024/03/10 12:48:27;;;;;;;30.75;18.40;;;17.30;16.80;;;;;;5039355;28;20763;-72
2024/03/10 12:50:54;;;;;;;32.25;19.10;;;16.90;16.70;;;;;;5033628;28;20412;-75
2024/03/10 12:53:21;;;;;;;35.10;19.65;;;16.60;17.50;;;;;;5032444;28;20456;-73
2024/03/10 12:55:47;;;;;;;32.05;18.65;;;16.40;18.20;;;;;;5032936;28;20746;-76
2024/03/10 12:58:14;;;;;;;35.50;20.05;;;16.30;18.60;;;;;;5035227;28;20830;-76